createdAt,value
2024-02-02T00:07:50.608Z,5.22
2024-02-02T00:22:52.674Z,5.12
2024-02-02T00:37:51.292Z,5.13
2024-02-02T00:52:52.254Z,5.12
2024-02-02T01:07:52.129Z,4.85
2024-02-02T01:22:52.490Z,4.83
2024-02-02T01:37:52.884Z,4.90
2024-02-02T01:52:53.227Z,4.81
2024-02-02T02:07:53.509Z,4.64
2024-02-02T02:22:54.404Z,4.57
2024-02-02T02:37:54.815Z,4.05
2024-02-02T02:52:55.144Z,3.70
2024-02-02T03:07:55.486Z,3.41
2024-02-02T03:22:55.890Z,3.14
2024-02-02T03:37:56.145Z,3.15
2024-02-02T03:52:57.044Z,3.28
2024-02-02T04:07:57.963Z,3.17
2024-02-02T04:22:58.216Z,3.30
2024-02-02T04:37:58.905Z,3.29
2024-02-02T04:52:59.763Z,3.21
2024-02-02T05:08:00.664Z,3.04
2024-02-02T05:23:00.861Z,3.23
2024-02-02T05:38:01.627Z,3.18
2024-02-02T05:53:02.366Z,3.28
2024-02-02T06:08:02.841Z,3.24
2024-02-02T06:23:04.294Z,3.20
2024-02-02T06:38:03.994Z,3.16
2024-02-02T06:53:04.437Z,3.25
2024-02-02T07:08:05.002Z,3.23
2024-02-02T07:23:05.593Z,3.65
2024-02-02T07:38:06.226Z,4.45
2024-02-02T07:53:06.829Z,4.99
2024-02-02T08:08:07.575Z,5.17
2024-02-02T08:23:08.266Z,5.58
2024-02-02T08:38:08.834Z,5.67
2024-02-02T08:53:09.393Z,5.93
2024-02-02T09:08:09.969Z,6.20
2024-02-02T09:23:10.642Z,6.38
2024-02-02T09:38:11.440Z,6.42
2024-02-02T09:53:11.499Z,6.69
2024-02-02T10:08:12.132Z,6.88
2024-02-02T10:23:12.553Z,6.91
2024-02-02T10:38:12.972Z,6.85
2024-02-02T10:53:13.579Z,6.88
2024-02-02T11:08:14.115Z,6.71
2024-02-02T11:23:14.708Z,6.79
2024-02-02T11:38:15.225Z,6.96
2024-02-02T11:53:15.652Z,7.37
2024-02-02T12:08:16.696Z,7.45
2024-02-02T12:23:17.128Z,7.88
2024-02-02T12:38:18.045Z,7.85
2024-02-02T12:53:18.458Z,8.06
2024-02-02T13:08:18.961Z,8.50
2024-02-02T13:23:20.042Z,8.57
2024-02-02T13:38:20.373Z,8.55
2024-02-02T13:53:20.916Z,8.52
2024-02-02T14:08:21.446Z,8.65
2024-02-02T14:23:21.880Z,8.58
2024-02-02T14:38:22.216Z,8.63
2024-02-02T14:53:22.630Z,8.68
2024-02-02T15:08:23.049Z,8.64
2024-02-02T15:23:24.249Z,8.78
2024-02-02T15:38:24.776Z,8.77
2024-02-02T15:53:25.203Z,8.82
2024-02-02T16:08:25.719Z,8.65
2024-02-02T16:23:26.173Z,8.74
2024-02-02T16:38:26.792Z,8.71
2024-02-02T16:53:27.356Z,8.80
2024-02-02T17:08:27.859Z,8.85
2024-02-02T17:23:28.398Z,8.59
2024-02-02T17:38:29.030Z,8.34
2024-02-02T17:53:29.530Z,8.07
2024-02-02T18:08:30.369Z,7.99
2024-02-02T18:23:30.935Z,7.81
2024-02-02T18:38:31.627Z,7.92
2024-02-02T18:53:32.365Z,7.80
2024-02-02T19:08:33.077Z,7.68
2024-02-02T19:23:33.824Z,7.59
2024-02-02T19:38:34.639Z,7.45
2024-02-02T19:53:35.347Z,7.50
2024-02-02T20:08:36.058Z,7.44
2024-02-02T20:23:36.846Z,7.40
2024-02-02T20:38:37.588Z,7.60
2024-02-02T20:53:38.103Z,7.65
2024-02-02T21:08:38.891Z,7.62
2024-02-02T21:23:39.616Z,7.61
2024-02-02T21:38:40.386Z,7.45
2024-02-02T21:53:41.164Z,7.40
2024-02-02T22:08:41.960Z,7.27
2024-02-02T22:23:42.851Z,7.47
2024-02-02T22:38:43.085Z,7.53
2024-02-02T22:53:43.824Z,7.58
2024-02-02T23:08:44.583Z,7.61
2024-02-02T23:23:45.702Z,7.60
2024-02-02T23:38:46.078Z,7.81
2024-02-02T23:53:46.328Z,8.05
